sensor_id;sensor_type;location;lat;lon;timestamp;P1;durP1;ratioP1;P2;durP2;ratioP2
60502;SDS011;51448;51.660;5.824;2023-04-15T00:01:14;12.70;;;5.38;;
60502;SDS011;51448;51.660;5.824;2023-04-15T00:03:46;9.75;;;4.95;;
60502;SDS011;51448;51.660;5.824;2023-04-15T00:06:14;11.35;;;5.32;;
60502;SDS011;51448;51.660;5.824;2023-04-15T00:08:41;11.68;;;5.05;;
60502;SDS011;51448;51.660;5.824;2023-04-15T00:11:09;11.52;;;5.90;;
60502;SDS011;51448;51.660;5.824;2023-04-15T00:13:37;11.55;;;5.43;;
60502;SDS011;51448;51.660;5.824;2023-04-15T00:16:06;12.07;;;5.70;;
60502;SDS011;51448;51.660;5.824;2023-04-15T00:18:34;13.25;;;5.78;;
60502;SDS011;51448;51.660;5.824;2023-04-15T00:21:04;9.68;;;5.45;;
60502;SDS011;51448;51.660;5.824;2023-04-15T00:23:32;10.95;;;5.70;;
60502;SDS011;51448;51.660;5.824;2023-04-15T00:25:59;12.15;;;6.32;;
60502;SDS011;51448;51.660;5.824;2023-04-15T00:28:27;11.25;;;5.65;;
60502;SDS011;51448;51.660;5.824;2023-04-15T00:30:54;12.95;;;6.45;;
60502;SDS011;51448;51.660;5.824;2023-04-15T00:33:22;10.98;;;6.28;;
60502;SDS011;51448;51.660;5.824;2023-04-15T00:35:50;12.95;;;6.53;;
60502;SDS011;51448;51.660;5.824;2023-04-15T00:38:17;10.48;;;6.45;;
60502;SDS011;51448;51.660;5.824;2023-04-15T00:40:45;10.80;;;6.60;;
60502;SDS011;51448;51.660;5.824;2023-04-15T00:43:13;15.80;;;7.63;;
60502;SDS011;51448;51.660;5.824;2023-04-15T00:45:41;15.15;;;6.97;;
60502;SDS011;51448;51.660;5.824;2023-04-15T00:48:09;14.68;;;7.18;;
60502;SDS011;51448;51.660;5.824;2023-04-15T00:50:38;13.30;;;7.28;;
60502;SDS011;51448;51.660;5.824;2023-04-15T00:53:05;12.50;;;7.50;;
60502;SDS011;51448;51.660;5.824;2023-04-15T00:55:33;12.32;;;6.90;;
60502;SDS011;51448;51.660;5.824;2023-04-15T00:58:02;13.48;;;7.72;;
60502;SDS011;51448;51.660;5.824;2023-04-15T01:00:30;10.93;;;7.38;;
60502;SDS011;51448;51.660;5.824;2023-04-15T01:02:58;13.13;;;7.07;;
60502;SDS011;51448;51.660;5.824;2023-04-15T01:05:26;12.20;;;7.38;;
60502;SDS011;51448;51.660;5.824;2023-04-15T01:07:56;10.88;;;7.28;;
60502;SDS011;51448;51.660;5.824;2023-04-15T01:10:24;12.85;;;7.00;;
60502;SDS011;51448;51.660;5.824;2023-04-15T01:12:51;13.52;;;7.00;;
60502;SDS011;51448;51.660;5.824;2023-04-15T01:15:19;12.95;;;7.78;;
60502;SDS011;51448;51.660;5.824;2023-04-15T01:17:47;12.23;;;6.88;;
60502;SDS011;51448;51.660;5.824;2023-04-15T01:20:15;11.25;;;7.28;;
60502;SDS011;51448;51.660;5.824;2023-04-15T01:22:43;12.68;;;6.93;;
60502;SDS011;51448;51.660;5.824;2023-04-15T01:25:12;11.73;;;7.50;;
60502;SDS011;51448;51.660;5.824;2023-04-15T01:27:45;12.85;;;7.38;;
60502;SDS011;51448;51.660;5.824;2023-04-15T01:30:13;12.10;;;7.80;;
60502;SDS011;51448;51.660;5.824;2023-04-15T01:32:41;13.15;;;7.68;;
60502;SDS011;51448;51.660;5.824;2023-04-15T01:35:09;12.65;;;7.65;;
60502;SDS011;51448;51.660;5.824;2023-04-15T01:37:36;13.57;;;8.00;;
60502;SDS011;51448;51.660;5.824;2023-04-15T01:40:04;11.32;;;7.50;;
60502;SDS011;51448;51.660;5.824;2023-04-15T01:42:35;14.10;;;7.90;;
60502;SDS011;51448;51.660;5.824;2023-04-15T01:45:03;10.48;;;6.97;;
60502;SDS011;51448;51.660;5.824;2023-04-15T01:47:33;11.60;;;6.85;;
60502;SDS011;51448;51.660;5.824;2023-04-15T01:50:01;13.38;;;6.80;;
60502;SDS011;51448;51.660;5.824;2023-04-15T01:52:29;14.48;;;7.85;;
60502;SDS011;51448;51.660;5.824;2023-04-15T01:54:56;11.60;;;7.05;;
60502;SDS011;51448;51.660;5.824;2023-04-15T01:57:24;12.57;;;7.30;;
60502;SDS011;51448;51.660;5.824;2023-04-15T01:59:54;14.45;;;7.80;;
60502;SDS011;51448;51.660;5.824;2023-04-15T02:02:22;11.32;;;7.03;;
60502;SDS011;51448;51.660;5.824;2023-04-15T02:04:49;13.95;;;7.55;;
60502;SDS011;51448;51.660;5.824;2023-04-15T02:07:17;14.05;;;8.85;;
60502;SDS011;51448;51.660;5.824;2023-04-15T02:09:45;11.88;;;7.63;;
60502;SDS011;51448;51.660;5.824;2023-04-15T02:12:13;12.50;;;7.88;;
60502;SDS011;51448;51.660;5.824;2023-04-15T02:14:41;11.88;;;8.27;;
60502;SDS011;51448;51.660;5.824;2023-04-15T02:17:08;11.27;;;7.85;;
60502;SDS011;51448;51.660;5.824;2023-04-15T02:19:36;15.27;;;8.93;;
60502;SDS011;51448;51.660;5.824;2023-04-15T02:22:05;10.57;;;8.25;;
60502;SDS011;51448;51.660;5.824;2023-04-15T02:24:35;16.75;;;8.60;;
60502;SDS011;51448;51.660;5.824;2023-04-15T02:27:02;12.35;;;8.80;;
60502;SDS011;51448;51.660;5.824;2023-04-15T02:29:30;14.38;;;8.50;;
60502;SDS011;51448;51.660;5.824;2023-04-15T02:32:00;12.05;;;9.13;;
60502;SDS011;51448;51.660;5.824;2023-04-15T02:34:28;17.30;;;8.82;;
60502;SDS011;51448;51.660;5.824;2023-04-15T02:36:56;14.38;;;8.90;;
60502;SDS011;51448;51.660;5.824;2023-04-15T02:39:25;14.07;;;9.68;;
60502;SDS011;51448;51.660;5.824;2023-04-15T02:41:53;13.55;;;8.13;;
60502;SDS011;51448;51.660;5.824;2023-04-15T02:44:21;10.85;;;7.63;;
60502;SDS011;51448;51.660;5.824;2023-04-15T02:46:55;10.95;;;7.68;;
60502;SDS011;51448;51.660;5.824;2023-04-15T02:49:23;11.20;;;8.05;;
60502;SDS011;51448;51.660;5.824;2023-04-15T02:51:51;12.20;;;8.80;;
60502;SDS011;51448;51.660;5.824;2023-04-15T02:54:20;13.55;;;8.65;;
60502;SDS011;51448;51.660;5.824;2023-04-15T02:56:52;12.48;;;9.07;;
60502;SDS011;51448;51.660;5.824;2023-04-15T02:59:21;18.40;;;9.43;;
60502;SDS011;51448;51.660;5.824;2023-04-15T03:01:50;13.45;;;9.50;;
60502;SDS011;51448;51.660;5.824;2023-04-15T03:04:18;12.45;;;9.52;;
60502;SDS011;51448;51.660;5.824;2023-04-15T03:06:46;12.45;;;8.30;;
60502;SDS011;51448;51.660;5.824;2023-04-15T03:09:13;13.40;;;9.32;;
60502;SDS011;51448;51.660;5.824;2023-04-15T03:11:42;11.73;;;9.68;;
60502;SDS011;51448;51.660;5.824;2023-04-15T03:14:10;12.98;;;9.38;;
60502;SDS011;51448;51.660;5.824;2023-04-15T03:16:41;12.98;;;9.13;;
60502;SDS011;51448;51.660;5.824;2023-04-15T03:19:09;11.90;;;9.18;;
60502;SDS011;51448;51.660;5.824;2023-04-15T03:21:39;11.13;;;9.25;;
60502;SDS011;51448;51.660;5.824;2023-04-15T03:24:08;12.65;;;9.20;;
60502;SDS011;51448;51.660;5.824;2023-04-15T03:26:36;14.95;;;9.55;;
60502;SDS011;51448;51.660;5.824;2023-04-15T03:29:10;13.77;;;9.63;;
60502;SDS011;51448;51.660;5.824;2023-04-15T03:31:39;14.98;;;9.75;;
60502;SDS011;51448;51.660;5.824;2023-04-15T03:34:06;11.50;;;9.15;;
60502;SDS011;51448;51.660;5.824;2023-04-15T03:36:35;12.43;;;9.80;;
60502;SDS011;51448;51.660;5.824;2023-04-15T03:39:03;16.55;;;9.60;;
60502;SDS011;51448;51.660;5.824;2023-04-15T03:41:30;15.80;;;9.07;;
60502;SDS011;51448;51.660;5.824;2023-04-15T03:43:59;13.57;;;10.30;;
60502;SDS011;51448;51.660;5.824;2023-04-15T03:46:26;13.65;;;9.52;;
60502;SDS011;51448;51.660;5.824;2023-04-15T03:48:54;13.48;;;9.60;;
60502;SDS011;51448;51.660;5.824;2023-04-15T03:51:21;15.32;;;9.63;;
60502;SDS011;51448;51.660;5.824;2023-04-15T03:53:49;12.82;;;9.75;;
60502;SDS011;51448;51.660;5.824;2023-04-15T03:56:17;14.90;;;10.35;;
60502;SDS011;51448;51.660;5.824;2023-04-15T03:58:44;13.35;;;10.63;;
60502;SDS011;51448;51.660;5.824;2023-04-15T04:01:12;13.23;;;10.60;;
60502;SDS011;51448;51.660;5.824;2023-04-15T04:03:40;14.43;;;10.20;;
60502;SDS011;51448;51.660;5.824;2023-04-15T04:06:08;14.77;;;10.30;;
60502;SDS011;51448;51.660;5.824;2023-04-15T04:08:38;15.65;;;11.45;;
60502;SDS011;51448;51.660;5.824;2023-04-15T04:11:06;14.05;;;10.13;;
60502;SDS011;51448;51.660;5.824;2023-04-15T04:13:34;14.48;;;10.45;;
60502;SDS011;51448;51.660;5.824;2023-04-15T04:16:01;12.75;;;9.95;;
60502;SDS011;51448;51.660;5.824;2023-04-15T04:18:31;13.88;;;11.02;;
60502;SDS011;51448;51.660;5.824;2023-04-15T04:20:59;15.05;;;10.95;;
60502;SDS011;51448;51.660;5.824;2023-04-15T04:23:27;14.13;;;9.80;;
60502;SDS011;51448;51.660;5.824;2023-04-15T04:25:55;13.27;;;10.38;;
60502;SDS011;51448;51.660;5.824;2023-04-15T04:28:23;15.13;;;11.63;;
60502;SDS011;51448;51.660;5.824;2023-04-15T04:30:50;15.70;;;11.10;;
60502;SDS011;51448;51.660;5.824;2023-04-15T04:33:18;17.17;;;11.70;;
60502;SDS011;51448;51.660;5.824;2023-04-15T04:35:48;13.50;;;11.10;;
60502;SDS011;51448;51.660;5.824;2023-04-15T04:38:16;14.63;;;10.77;;
60502;SDS011;51448;51.660;5.824;2023-04-15T04:40:43;11.95;;;10.18;;
60502;SDS011;51448;51.660;5.824;2023-04-15T04:43:11;16.90;;;11.15;;
60502;SDS011;51448;51.660;5.824;2023-04-15T04:45:39;16.05;;;11.18;;
60502;SDS011;51448;51.660;5.824;2023-04-15T04:48:07;14.70;;;10.82;;
60502;SDS011;51448;51.660;5.824;2023-04-15T04:50:36;14.40;;;10.52;;
60502;SDS011;51448;51.660;5.824;2023-04-15T04:53:04;16.88;;;10.98;;
60502;SDS011;51448;51.660;5.824;2023-04-15T04:55:32;15.13;;;10.93;;
60502;SDS011;51448;51.660;5.824;2023-04-15T04:58:00;14.10;;;11.25;;
60502;SDS011;51448;51.660;5.824;2023-04-15T05:00:28;15.30;;;10.95;;
60502;SDS011;51448;51.660;5.824;2023-04-15T05:02:55;15.98;;;10.98;;
60502;SDS011;51448;51.660;5.824;2023-04-15T05:05:23;14.27;;;10.30;;
60502;SDS011;51448;51.660;5.824;2023-04-15T05:07:51;14.82;;;11.27;;
60502;SDS011;51448;51.660;5.824;2023-04-15T05:10:19;15.43;;;11.13;;
60502;SDS011;51448;51.660;5.824;2023-04-15T05:12:47;14.55;;;10.88;;
60502;SDS011;51448;51.660;5.824;2023-04-15T05:15:14;15.52;;;11.10;;
60502;SDS011;51448;51.660;5.824;2023-04-15T05:17:42;14.68;;;10.35;;
60502;SDS011;51448;51.660;5.824;2023-04-15T05:20:11;13.73;;;10.85;;
60502;SDS011;51448;51.660;5.824;2023-04-15T05:22:39;15.90;;;11.20;;
60502;SDS011;51448;51.660;5.824;2023-04-15T05:25:07;14.73;;;10.82;;
60502;SDS011;51448;51.660;5.824;2023-04-15T05:27:35;15.25;;;11.02;;
60502;SDS011;51448;51.660;5.824;2023-04-15T05:30:03;15.75;;;11.55;;
60502;SDS011;51448;51.660;5.824;2023-04-15T05:32:31;13.77;;;10.82;;
60502;SDS011;51448;51.660;5.824;2023-04-15T05:34:59;13.95;;;10.85;;
60502;SDS011;51448;51.660;5.824;2023-04-15T05:37:26;13.88;;;11.23;;
60502;SDS011;51448;51.660;5.824;2023-04-15T05:39:54;14.57;;;11.55;;
60502;SDS011;51448;51.660;5.824;2023-04-15T05:42:22;16.17;;;11.45;;
60502;SDS011;51448;51.660;5.824;2023-04-15T05:44:53;15.57;;;11.47;;
60502;SDS011;51448;51.660;5.824;2023-04-15T05:47:21;12.60;;;11.18;;
60502;SDS011;51448;51.660;5.824;2023-04-15T05:49:49;14.85;;;11.38;;
60502;SDS011;51448;51.660;5.824;2023-04-15T05:52:17;16.58;;;11.57;;
60502;SDS011;51448;51.660;5.824;2023-04-15T05:54:44;15.02;;;11.02;;
60502;SDS011;51448;51.660;5.824;2023-04-15T05:57:12;13.95;;;11.10;;
60502;SDS011;51448;51.660;5.824;2023-04-15T05:59:41;13.85;;;12.02;;
60502;SDS011;51448;51.660;5.824;2023-04-15T06:02:08;15.13;;;12.23;;
60502;SDS011;51448;51.660;5.824;2023-04-15T06:04:36;14.00;;;11.77;;
60502;SDS011;51448;51.660;5.824;2023-04-15T06:07:04;15.20;;;12.10;;
60502;SDS011;51448;51.660;5.824;2023-04-15T06:09:32;14.82;;;10.85;;
60502;SDS011;51448;51.660;5.824;2023-04-15T06:11:59;14.82;;;11.63;;
60502;SDS011;51448;51.660;5.824;2023-04-15T06:14:28;15.60;;;12.02;;
60502;SDS011;51448;51.660;5.824;2023-04-15T06:16:55;15.20;;;11.82;;
60502;SDS011;51448;51.660;5.824;2023-04-15T06:19:24;14.15;;;12.05;;
60502;SDS011;51448;51.660;5.824;2023-04-15T06:21:52;15.07;;;11.32;;
60502;SDS011;51448;51.660;5.824;2023-04-15T06:24:19;16.27;;;12.23;;
60502;SDS011;51448;51.660;5.824;2023-04-15T06:26:47;15.63;;;12.70;;
60502;SDS011;51448;51.660;5.824;2023-04-15T06:29:15;14.10;;;11.60;;
60502;SDS011;51448;51.660;5.824;2023-04-15T06:31:42;17.27;;;13.35;;
60502;SDS011;51448;51.660;5.824;2023-04-15T06:34:10;16.65;;;12.73;;
60502;SDS011;51448;51.660;5.824;2023-04-15T06:36:37;15.05;;;12.15;;
60502;SDS011;51448;51.660;5.824;2023-04-15T06:39:05;17.75;;;12.68;;
60502;SDS011;51448;51.660;5.824;2023-04-15T06:41:33;15.25;;;11.90;;
60502;SDS011;51448;51.660;5.824;2023-04-15T06:44:01;16.08;;;12.90;;
60502;SDS011;51448;51.660;5.824;2023-04-15T06:46:29;16.50;;;12.80;;
60502;SDS011;51448;51.660;5.824;2023-04-15T06:48:57;17.30;;;12.65;;
60502;SDS011;51448;51.660;5.824;2023-04-15T06:51:24;16.52;;;13.35;;
60502;SDS011;51448;51.660;5.824;2023-04-15T06:53:53;16.90;;;12.80;;
60502;SDS011;51448;51.660;5.824;2023-04-15T06:56:20;16.25;;;12.65;;
60502;SDS011;51448;51.660;5.824;2023-04-15T06:58:48;16.40;;;11.95;;
60502;SDS011;51448;51.660;5.824;2023-04-15T07:01:18;15.90;;;12.13;;
60502;SDS011;51448;51.660;5.824;2023-04-15T07:03:46;16.23;;;12.65;;
60502;SDS011;51448;51.660;5.824;2023-04-15T07:06:13;15.00;;;12.23;;
60502;SDS011;51448;51.660;5.824;2023-04-15T07:08:41;16.17;;;12.35;;
60502;SDS011;51448;51.660;5.824;2023-04-15T07:11:10;17.65;;;12.48;;
60502;SDS011;51448;51.660;5.824;2023-04-15T07:13:37;15.10;;;11.38;;
60502;SDS011;51448;51.660;5.824;2023-04-15T07:16:05;13.70;;;11.63;;
60502;SDS011;51448;51.660;5.824;2023-04-15T07:18:33;13.43;;;10.82;;
60502;SDS011;51448;51.660;5.824;2023-04-15T07:21:02;16.55;;;12.43;;
60502;SDS011;51448;51.660;5.824;2023-04-15T07:23:30;17.45;;;13.07;;
60502;SDS011;51448;51.660;5.824;2023-04-15T07:25:58;15.52;;;12.02;;
60502;SDS011;51448;51.660;5.824;2023-04-15T07:28:27;15.15;;;12.13;;
60502;SDS011;51448;51.660;5.824;2023-04-15T07:30:54;15.80;;;12.70;;
60502;SDS011;51448;51.660;5.824;2023-04-15T07:33:23;16.25;;;12.60;;
60502;SDS011;51448;51.660;5.824;2023-04-15T07:35:51;16.60;;;12.80;;
60502;SDS011;51448;51.660;5.824;2023-04-15T07:38:18;15.75;;;11.77;;
60502;SDS011;51448;51.660;5.824;2023-04-15T07:40:46;14.43;;;10.85;;
60502;SDS011;51448;51.660;5.824;2023-04-15T07:43:14;16.67;;;12.38;;
60502;SDS011;51448;51.660;5.824;2023-04-15T07:45:42;14.40;;;10.95;;
60502;SDS011;51448;51.660;5.824;2023-04-15T07:48:10;13.80;;;11.30;;
60502;SDS011;51448;51.660;5.824;2023-04-15T07:50:37;14.23;;;11.30;;
60502;SDS011;51448;51.660;5.824;2023-04-15T07:53:05;14.45;;;11.77;;
60502;SDS011;51448;51.660;5.824;2023-04-15T07:55:33;15.23;;;12.48;;
60502;SDS011;51448;51.660;5.824;2023-04-15T07:58:01;13.85;;;11.10;;
60502;SDS011;51448;51.660;5.824;2023-04-15T08:00:28;13.98;;;11.10;;
60502;SDS011;51448;51.660;5.824;2023-04-15T08:02:56;14.40;;;12.07;;
60502;SDS011;51448;51.660;5.824;2023-04-15T08:05:25;15.15;;;12.00;;
60502;SDS011;51448;51.660;5.824;2023-04-15T08:07:53;15.13;;;11.32;;
60502;SDS011;51448;51.660;5.824;2023-04-15T08:10:21;15.95;;;12.15;;
60502;SDS011;51448;51.660;5.824;2023-04-15T08:12:51;14.30;;;11.07;;
60502;SDS011;51448;51.660;5.824;2023-04-15T08:15:27;15.63;;;10.68;;
60502;SDS011;51448;51.660;5.824;2023-04-15T08:17:54;13.02;;;9.43;;
60502;SDS011;51448;51.660;5.824;2023-04-15T08:20:22;13.43;;;9.73;;
60502;SDS011;51448;51.660;5.824;2023-04-15T08:22:50;12.25;;;9.05;;
60502;SDS011;51448;51.660;5.824;2023-04-15T08:25:18;11.93;;;9.60;;
60502;SDS011;51448;51.660;5.824;2023-04-15T08:27:46;12.45;;;9.40;;
60502;SDS011;51448;51.660;5.824;2023-04-15T08:30:14;10.75;;;8.02;;
60502;SDS011;51448;51.660;5.824;2023-04-15T08:32:44;11.82;;;9.02;;
60502;SDS011;51448;51.660;5.824;2023-04-15T08:35:13;13.30;;;9.50;;
60502;SDS011;51448;51.660;5.824;2023-04-15T08:37:41;11.48;;;8.00;;
60502;SDS011;51448;51.660;5.824;2023-04-15T08:40:09;10.55;;;7.88;;
60502;SDS011;51448;51.660;5.824;2023-04-15T08:42:41;12.73;;;8.95;;
60502;SDS011;51448;51.660;5.824;2023-04-15T08:45:17;11.25;;;8.95;;
60502;SDS011;51448;51.660;5.824;2023-04-15T08:47:46;9.38;;;7.15;;
60502;SDS011;51448;51.660;5.824;2023-04-15T08:50:20;11.13;;;7.40;;
60502;SDS011;51448;51.660;5.824;2023-04-15T08:52:58;8.53;;;6.20;;
60502;SDS011;51448;51.660;5.824;2023-04-15T08:55:27;9.70;;;6.22;;
60502;SDS011;51448;51.660;5.824;2023-04-15T08:58:02;8.35;;;6.13;;
60502;SDS011;51448;51.660;5.824;2023-04-15T09:00:31;7.40;;;5.22;;
60502;SDS011;51448;51.660;5.824;2023-04-15T09:03:00;8.90;;;6.28;;
60502;SDS011;51448;51.660;5.824;2023-04-15T09:05:30;9.02;;;6.22;;
60502;SDS011;51448;51.660;5.824;2023-04-15T09:08:03;7.82;;;5.40;;
60502;SDS011;51448;51.660;5.824;2023-04-15T09:10:32;7.90;;;5.18;;
60502;SDS011;51448;51.660;5.824;2023-04-15T09:13:00;7.72;;;5.32;;
60502;SDS011;51448;51.660;5.824;2023-04-15T09:15:28;8.02;;;5.63;;
60502;SDS011;51448;51.660;5.824;2023-04-15T09:17:59;7.65;;;5.40;;
60502;SDS011;51448;51.660;5.824;2023-04-15T09:20:27;8.43;;;5.50;;
60502;SDS011;51448;51.660;5.824;2023-04-15T09:23:01;7.80;;;5.63;;
60502;SDS011;51448;51.660;5.824;2023-04-15T09:25:40;8.05;;;4.70;;
60502;SDS011;51448;51.660;5.824;2023-04-15T09:28:08;10.82;;;5.45;;
60502;SDS011;51448;51.660;5.824;2023-04-15T09:30:37;9.88;;;5.43;;
60502;SDS011;51448;51.660;5.824;2023-04-15T09:33:05;7.55;;;5.13;;
60502;SDS011;51448;51.660;5.824;2023-04-15T09:35:37;8.00;;;5.55;;
60502;SDS011;51448;51.660;5.824;2023-04-15T09:38:05;6.88;;;4.70;;
60502;SDS011;51448;51.660;5.824;2023-04-15T09:40:37;7.22;;;4.50;;
60502;SDS011;51448;51.660;5.824;2023-04-15T09:43:08;6.70;;;4.22;;
60502;SDS011;51448;51.660;5.824;2023-04-15T09:48:24;5.30;;;3.05;;
60502;SDS011;51448;51.660;5.824;2023-04-15T09:50:57;6.43;;;3.95;;
60502;SDS011;51448;51.660;5.824;2023-04-15T09:53:27;6.45;;;3.92;;
60502;SDS011;51448;51.660;5.824;2023-04-15T09:55:58;6.88;;;3.95;;
60502;SDS011;51448;51.660;5.824;2023-04-15T09:58:32;7.03;;;3.20;;
60502;SDS011;51448;51.660;5.824;2023-04-15T10:01:02;8.35;;;3.28;;
60502;SDS011;51448;51.660;5.824;2023-04-15T10:03:33;6.03;;;3.40;;
60502;SDS011;51448;51.660;5.824;2023-04-15T10:06:04;6.28;;;3.80;;
60502;SDS011;51448;51.660;5.824;2023-04-15T10:08:33;5.88;;;3.33;;
60502;SDS011;51448;51.660;5.824;2023-04-15T10:11:01;5.15;;;2.90;;
60502;SDS011;51448;51.660;5.824;2023-04-15T10:13:30;5.07;;;3.10;;
60502;SDS011;51448;51.660;5.824;2023-04-15T10:18:42;5.40;;;3.08;;
60502;SDS011;51448;51.660;5.824;2023-04-15T10:21:13;5.00;;;2.65;;
60502;SDS011;51448;51.660;5.824;2023-04-15T10:23:44;5.95;;;3.10;;
60502;SDS011;51448;51.660;5.824;2023-04-15T10:26:13;6.68;;;3.40;;
60502;SDS011;51448;51.660;5.824;2023-04-15T10:28:43;6.65;;;3.08;;
60502;SDS011;51448;51.660;5.824;2023-04-15T10:31:15;5.88;;;3.40;;
60502;SDS011;51448;51.660;5.824;2023-04-15T10:33:44;5.88;;;3.50;;
60502;SDS011;51448;51.660;5.824;2023-04-15T10:36:13;6.80;;;3.85;;
60502;SDS011;51448;51.660;5.824;2023-04-15T10:41:13;7.47;;;3.83;;
60502;SDS011;51448;51.660;5.824;2023-04-15T10:43:48;7.25;;;4.05;;
60502;SDS011;51448;51.660;5.824;2023-04-15T10:46:21;6.70;;;3.38;;
60502;SDS011;51448;51.660;5.824;2023-04-15T10:49:11;6.07;;;3.25;;
60502;SDS011;51448;51.660;5.824;2023-04-15T10:51:46;5.03;;;3.00;;
60502;SDS011;51448;51.660;5.824;2023-04-15T10:59:31;6.70;;;3.60;;
60502;SDS011;51448;51.660;5.824;2023-04-15T11:02:03;6.97;;;3.40;;
60502;SDS011;51448;51.660;5.824;2023-04-15T11:04:50;7.43;;;3.25;;
60502;SDS011;51448;51.660;5.824;2023-04-15T11:13:01;6.10;;;3.42;;
60502;SDS011;51448;51.660;5.824;2023-04-15T11:20:57;6.78;;;4.35;;
60502;SDS011;51448;51.660;5.824;2023-04-15T11:23:31;5.93;;;3.10;;
60502;SDS011;51448;51.660;5.824;2023-04-15T11:26:06;5.57;;;2.35;;
60502;SDS011;51448;51.660;5.824;2023-04-15T11:28:38;7.18;;;3.10;;
60502;SDS011;51448;51.660;5.824;2023-04-15T11:31:18;6.77;;;2.93;;
60502;SDS011;51448;51.660;5.824;2023-04-15T11:33:56;6.60;;;3.20;;
60502;SDS011;51448;51.660;5.824;2023-04-15T11:36:28;4.85;;;2.67;;
60502;SDS011;51448;51.660;5.824;2023-04-15T11:39:00;6.85;;;3.65;;
60502;SDS011;51448;51.660;5.824;2023-04-15T11:41:28;5.75;;;2.72;;
60502;SDS011;51448;51.660;5.824;2023-04-15T11:43:56;5.10;;;3.08;;
60502;SDS011;51448;51.660;5.824;2023-04-15T11:46:27;6.43;;;3.05;;
60502;SDS011;51448;51.660;5.824;2023-04-15T11:48:58;5.22;;;3.03;;
60502;SDS011;51448;51.660;5.824;2023-04-15T11:51:26;5.55;;;3.67;;
60502;SDS011;51448;51.660;5.824;2023-04-15T11:54:00;6.63;;;3.42;;
60502;SDS011;51448;51.660;5.824;2023-04-15T11:56:28;7.35;;;3.30;;
60502;SDS011;51448;51.660;5.824;2023-04-15T11:58:56;6.45;;;3.10;;
60502;SDS011;51448;51.660;5.824;2023-04-15T12:01:33;6.05;;;3.25;;
60502;SDS011;51448;51.660;5.824;2023-04-15T12:04:09;5.20;;;2.80;;
60502;SDS011;51448;51.660;5.824;2023-04-15T12:06:43;4.87;;;2.67;;
60502;SDS011;51448;51.660;5.824;2023-04-15T12:09:12;5.05;;;2.22;;
60502;SDS011;51448;51.660;5.824;2023-04-15T12:11:48;5.38;;;2.58;;
60502;SDS011;51448;51.660;5.824;2023-04-15T12:14:25;5.68;;;2.50;;
60502;SDS011;51448;51.660;5.824;2023-04-15T12:16:56;5.00;;;2.55;;
60502;SDS011;51448;51.660;5.824;2023-04-15T12:19:45;4.80;;;2.40;;
60502;SDS011;51448;51.660;5.824;2023-04-15T12:22:15;5.35;;;2.30;;
60502;SDS011;51448;51.660;5.824;2023-04-15T12:24:43;5.40;;;2.15;;
60502;SDS011;51448;51.660;5.824;2023-04-15T12:27:14;4.03;;;1.88;;
60502;SDS011;51448;51.660;5.824;2023-04-15T12:29:43;4.38;;;2.10;;
60502;SDS011;51448;51.660;5.824;2023-04-15T12:32:12;5.90;;;2.17;;
60502;SDS011;51448;51.660;5.824;2023-04-15T12:34:43;4.47;;;2.05;;
60502;SDS011;51448;51.660;5.824;2023-04-15T12:37:17;4.40;;;1.98;;
60502;SDS011;51448;51.660;5.824;2023-04-15T12:39:47;5.25;;;1.70;;
60502;SDS011;51448;51.660;5.824;2023-04-15T12:42:16;5.40;;;2.60;;
60502;SDS011;51448;51.660;5.824;2023-04-15T12:44:45;5.35;;;2.58;;
60502;SDS011;51448;51.660;5.824;2023-04-15T12:47:13;4.90;;;2.00;;
60502;SDS011;51448;51.660;5.824;2023-04-15T12:49:41;5.47;;;2.05;;
60502;SDS011;51448;51.660;5.824;2023-04-15T12:52:09;6.07;;;1.88;;
60502;SDS011;51448;51.660;5.824;2023-04-15T12:54:37;4.80;;;1.80;;
60502;SDS011;51448;51.660;5.824;2023-04-15T12:57:05;4.68;;;1.33;;
60502;SDS011;51448;51.660;5.824;2023-04-15T12:59:34;6.30;;;1.30;;
60502;SDS011;51448;51.660;5.824;2023-04-15T13:02:02;3.25;;;1.52;;
60502;SDS011;51448;51.660;5.824;2023-04-15T13:04:30;3.08;;;1.13;;
60502;SDS011;51448;51.660;5.824;2023-04-15T13:06:58;4.43;;;1.40;;
60502;SDS011;51448;51.660;5.824;2023-04-15T13:09:26;3.65;;;1.23;;
60502;SDS011;51448;51.660;5.824;2023-04-15T13:11:53;4.35;;;1.50;;
60502;SDS011;51448;51.660;5.824;2023-04-15T13:14:22;3.50;;;1.38;;
60502;SDS011;51448;51.660;5.824;2023-04-15T13:16:49;4.18;;;1.40;;
60502;SDS011;51448;51.660;5.824;2023-04-15T13:19:17;4.65;;;1.35;;
60502;SDS011;51448;51.660;5.824;2023-04-15T13:21:44;3.47;;;1.45;;
60502;SDS011;51448;51.660;5.824;2023-04-15T13:24:12;4.60;;;1.75;;
60502;SDS011;51448;51.660;5.824;2023-04-15T13:26:40;5.60;;;1.90;;
60502;SDS011;51448;51.660;5.824;2023-04-15T13:29:08;3.58;;;1.52;;
60502;SDS011;51448;51.660;5.824;2023-04-15T13:31:35;5.72;;;2.20;;
60502;SDS011;51448;51.660;5.824;2023-04-15T13:34:03;3.78;;;1.27;;
60502;SDS011;51448;51.660;5.824;2023-04-15T13:36:31;4.72;;;1.83;;
60502;SDS011;51448;51.660;5.824;2023-04-15T13:38:59;4.90;;;2.08;;
60502;SDS011;51448;51.660;5.824;2023-04-15T13:41:27;4.90;;;2.30;;
60502;SDS011;51448;51.660;5.824;2023-04-15T13:43:54;6.30;;;2.22;;
60502;SDS011;51448;51.660;5.824;2023-04-15T13:46:22;6.43;;;2.20;;
60502;SDS011;51448;51.660;5.824;2023-04-15T13:48:51;6.40;;;1.90;;
60502;SDS011;51448;51.660;5.824;2023-04-15T13:51:19;6.25;;;1.95;;
60502;SDS011;51448;51.660;5.824;2023-04-15T13:53:47;4.18;;;1.55;;
60502;SDS011;51448;51.660;5.824;2023-04-15T13:56:14;6.22;;;1.58;;
60502;SDS011;51448;51.660;5.824;2023-04-15T13:58:42;8.00;;;1.63;;
60502;SDS011;51448;51.660;5.824;2023-04-15T14:01:10;3.85;;;1.20;;
60502;SDS011;51448;51.660;5.824;2023-04-15T14:03:37;3.53;;;1.10;;
60502;SDS011;51448;51.660;5.824;2023-04-15T14:06:05;3.45;;;1.20;;
60502;SDS011;51448;51.660;5.824;2023-04-15T14:08:33;3.47;;;1.30;;
60502;SDS011;51448;51.660;5.824;2023-04-15T14:11:01;5.07;;;1.20;;
60502;SDS011;51448;51.660;5.824;2023-04-15T14:13:29;5.32;;;1.30;;
60502;SDS011;51448;51.660;5.824;2023-04-15T14:15:57;5.07;;;1.20;;
60502;SDS011;51448;51.660;5.824;2023-04-15T14:18:25;2.95;;;0.98;;
60502;SDS011;51448;51.660;5.824;2023-04-15T14:20:53;3.25;;;0.90;;
60502;SDS011;51448;51.660;5.824;2023-04-15T14:23:21;3.55;;;0.98;;
60502;SDS011;51448;51.660;5.824;2023-04-15T14:25:49;6.50;;;1.33;;
60502;SDS011;51448;51.660;5.824;2023-04-15T14:28:18;7.43;;;1.20;;
60502;SDS011;51448;51.660;5.824;2023-04-15T14:30:45;4.38;;;0.90;;
60502;SDS011;51448;51.660;5.824;2023-04-15T14:33:13;3.65;;;0.98;;
60502;SDS011;51448;51.660;5.824;2023-04-15T14:35:41;3.85;;;0.98;;
60502;SDS011;51448;51.660;5.824;2023-04-15T14:38:08;4.53;;;1.15;;
60502;SDS011;51448;51.660;5.824;2023-04-15T14:40:40;3.92;;;0.90;;
60502;SDS011;51448;51.660;5.824;2023-04-15T14:43:08;2.13;;;0.75;;
60502;SDS011;51448;51.660;5.824;2023-04-15T14:45:37;3.00;;;1.00;;
60502;SDS011;51448;51.660;5.824;2023-04-15T14:48:09;4.15;;;0.90;;
60502;SDS011;51448;51.660;5.824;2023-04-15T14:50:39;3.00;;;0.85;;
60502;SDS011;51448;51.660;5.824;2023-04-15T14:53:08;2.60;;;0.80;;
60502;SDS011;51448;51.660;5.824;2023-04-15T14:55:35;3.08;;;0.90;;
60502;SDS011;51448;51.660;5.824;2023-04-15T14:58:03;2.97;;;0.70;;
60502;SDS011;51448;51.660;5.824;2023-04-15T15:00:32;2.38;;;0.80;;
60502;SDS011;51448;51.660;5.824;2023-04-15T15:03:00;6.45;;;0.80;;
60502;SDS011;51448;51.660;5.824;2023-04-15T15:05:28;2.35;;;0.90;;
60502;SDS011;51448;51.660;5.824;2023-04-15T15:07:56;2.53;;;0.73;;
60502;SDS011;51448;51.660;5.824;2023-04-15T15:10:23;3.88;;;0.98;;